Time;durP1;ratioP1;P1;durP2;ratioP2;P2;SDS_P1;SDS_P2;PMS_P1;PMS_P2;Temp;Humidity;BMP_temperature;BMP_pressure;BME280_temperature;BME280_humidity;BME280_pressure;Samples;Min_cycle;Max_cycle;Signal;HPM_P1;HPM_P2
2023/12/31 00:00:17;;;;;;;1.93;1.93;;;;;;;;;;6386206;27;20292;-68
2023/12/31 00:03:21;;;;;;;2.40;2.23;;;;;;;;;;6385996;27;20405;-69
2023/12/31 00:06:25;;;;;;;2.30;2.20;;;;;;;;;;6386264;27;20288;-68
2023/12/31 00:09:29;;;;;;;2.20;2.20;;;;;;;;;;6386122;27;20295;-69
2023/12/31 00:12:33;;;;;;;2.20;2.10;;;;;;;;;;6386331;27;20591;-68
2023/12/31 00:15:38;;;;;;;1.80;1.70;;;;;;;;;;6385756;27;20292;-68
2023/12/31 00:18:42;;;;;;;1.70;1.70;;;;;;;;;;6385716;27;20294;-68
2023/12/31 00:21:46;;;;;;;2.00;1.97;;;;;;;;;;6386432;27;20301;-69
2023/12/31 00:24:54;;;;;;;1.70;1.70;;;;;;;;;;6385444;27;20336;-69
2023/12/31 00:27:58;;;;;;;2.03;2.00;;;;;;;;;;6385424;27;20299;-68
2023/12/31 00:31:03;;;;;;;1.80;1.80;;;;;;;;;;6385988;27;20306;-69
2023/12/31 00:34:08;;;;;;;1.60;1.60;;;;;;;;;;6385682;27;20306;-69
2023/12/31 00:37:13;;;;;;;1.70;1.70;;;;;;;;;;6367215;27;20476;-69
2023/12/31 00:40:17;;;;;;;1.50;1.50;;;;;;;;;;6366669;27;20296;-68
2023/12/31 00:43:21;;;;;;;1.50;1.50;;;;;;;;;;6400637;27;20344;-68
2023/12/31 00:46:26;;;;;;;1.50;1.40;;;;;;;;;;6385970;27;20284;-69
2023/12/31 00:49:30;;;;;;;1.47;1.47;;;;;;;;;;6385595;27;20292;-68
2023/12/31 00:52:34;;;;;;;1.40;1.40;;;;;;;;;;6385787;27;20589;-68
2023/12/31 00:55:39;;;;;;;1.30;1.30;;;;;;;;;;6385264;27;20589;-69
2023/12/31 00:58:43;;;;;;;1.73;1.70;;;;;;;;;;6362858;28;20300;-68
2023/12/31 01:01:50;;;;;;;1.40;1.40;;;;;;;;;;6383644;28;20308;-69
2023/12/31 01:04:54;;;;;;;1.30;1.30;;;;;;;;;;6385125;27;20289;-69
2023/12/31 01:07:58;;;;;;;1.20;1.07;;;;;;;;;;6366567;27;20303;-69
2023/12/31 01:11:02;;;;;;;1.40;1.40;;;;;;;;;;6365616;28;20444;-69
2023/12/31 01:14:06;;;;;;;1.40;1.40;;;;;;;;;;6383665;27;20576;-69
2023/12/31 01:17:11;;;;;;;1.27;1.27;;;;;;;;;;6385154;28;20241;-68
2023/12/31 01:20:16;;;;;;;1.70;1.70;;;;;;;;;;6365859;28;20307;-67
2023/12/31 01:23:21;;;;;;;1.20;1.20;;;;;;;;;;6384512;28;20319;-68
2023/12/31 01:26:25;;;;;;;1.10;1.10;;;;;;;;;;6385660;28;20287;-69
2023/12/31 01:29:29;;;;;;;1.33;1.33;;;;;;;;;;6384834;28;20292;-68
2023/12/31 01:32:34;;;;;;;1.40;1.40;;;;;;;;;;6385267;27;20313;-68
2023/12/31 01:35:39;;;;;;;1.43;1.33;;;;;;;;;;6384569;28;20285;-68
2023/12/31 01:38:43;;;;;;;1.30;1.30;;;;;;;;;;6384354;28;20295;-69
2023/12/31 01:41:47;;;;;;;1.30;1.30;;;;;;;;;;6366353;27;20293;-68
2023/12/31 01:44:50;;;;;;;2.03;1.30;;;;;;;;;;6384552;28;20291;-68
2023/12/31 01:47:57;;;;;;;1.50;1.50;;;;;;;;;;6384459;27;20287;-68
2023/12/31 01:51:01;;;;;;;2.17;1.90;;;;;;;;;;6384684;28;20285;-69
2023/12/31 01:54:05;;;;;;;1.60;1.50;;;;;;;;;;6388325;27;20528;-69
2023/12/31 01:57:11;;;;;;;1.93;1.90;;;;;;;;;;6370945;27;20291;-70
2023/12/31 02:00:15;;;;;;;1.60;1.60;;;;;;;;;;6370629;27;20303;-68
2023/12/31 02:03:23;;;;;;;1.40;1.40;;;;;;;;;;6370287;27;20310;-68
2023/12/31 02:06:28;;;;;;;1.70;1.60;;;;;;;;;;6389928;27;20296;-70
2023/12/31 02:09:32;;;;;;;1.60;1.60;;;;;;;;;;6367981;27;20314;-69
2023/12/31 02:12:37;;;;;;;2.03;1.80;;;;;;;;;;6387983;27;20293;-69
2023/12/31 02:15:42;;;;;;;1.60;1.60;;;;;;;;;;6387869;27;20302;-68
2023/12/31 02:18:48;;;;;;;1.67;1.57;;;;;;;;;;6388736;27;20288;-69
2023/12/31 02:21:52;;;;;;;1.50;1.50;;;;;;;;;;6389185;27;20288;-69
2023/12/31 02:24:57;;;;;;;1.60;1.50;;;;;;;;;;6388398;27;20287;-68
2023/12/31 02:28:02;;;;;;;1.53;1.53;;;;;;;;;;6388399;27;20372;-69
2023/12/31 02:31:07;;;;;;;1.60;1.50;;;;;;;;;;6388578;27;20338;-69
2023/12/31 02:34:11;;;;;;;1.83;1.77;;;;;;;;;;6388356;27;20288;-68
2023/12/31 02:37:15;;;;;;;1.40;1.40;;;;;;;;;;6388818;27;20300;-69
2023/12/31 02:40:20;;;;;;;1.63;1.63;;;;;;;;;;6386635;27;20292;-68
2023/12/31 02:43:25;;;;;;;3.10;1.60;;;;;;;;;;6387788;27;20512;-69
2023/12/31 02:46:29;;;;;;;2.00;1.50;;;;;;;;;;6388143;27;20304;-69
2023/12/31 02:49:33;;;;;;;1.47;1.47;;;;;;;;;;6368969;27;20292;-68
2023/12/31 02:52:38;;;;;;;1.50;1.40;;;;;;;;;;6388382;27;20299;-68
2023/12/31 02:55:42;;;;;;;1.30;1.30;;;;;;;;;;6385999;27;20284;-68
2023/12/31 02:58:47;;;;;;;1.50;1.50;;;;;;;;;;6364105;27;20288;-68
2023/12/31 03:01:53;;;;;;;1.40;1.40;;;;;;;;;;6344262;28;20300;-69
2023/12/31 03:04:57;;;;;;;1.30;1.30;;;;;;;;;;6401031;27;20320;-68
2023/12/31 03:08:01;;;;;;;1.30;1.30;;;;;;;;;;6367907;27;20303;-68
2023/12/31 03:11:05;;;;;;;2.30;1.50;;;;;;;;;;6386698;27;20265;-68
2023/12/31 03:14:10;;;;;;;1.30;1.20;;;;;;;;;;6386989;27;20343;-69
2023/12/31 03:17:15;;;;;;;1.30;1.30;;;;;;;;;;6368643;27;20275;-68
2023/12/31 03:20:19;;;;;;;1.20;1.20;;;;;;;;;;6386617;27;20295;-68
2023/12/31 03:23:23;;;;;;;1.10;1.10;;;;;;;;;;6367907;27;20304;-68
2023/12/31 03:26:27;;;;;;;1.40;1.30;;;;;;;;;;6386979;27;20292;-69
2023/12/31 03:29:32;;;;;;;1.40;1.40;;;;;;;;;;6386478;27;20287;-68
2023/12/31 03:32:37;;;;;;;1.00;1.00;;;;;;;;;;6386852;27;20284;-67
2023/12/31 03:35:41;;;;;;;1.27;1.20;;;;;;;;;;6380561;27;20383;-68
2023/12/31 03:38:45;;;;;;;1.03;1.00;;;;;;;;;;6354770;28;20285;-68
2023/12/31 03:41:49;;;;;;;1.10;1.10;;;;;;;;;;6320926;28;20297;-68
2023/12/31 03:44:55;;;;;;;1.00;1.00;;;;;;;;;;6354249;28;20293;-68
2023/12/31 03:48:00;;;;;;;1.00;1.00;;;;;;;;;;6342177;27;20296;-68
2023/12/31 03:51:05;;;;;;;0.97;0.97;;;;;;;;;;6342159;28;20301;-68
2023/12/31 03:54:08;;;;;;;1.20;1.20;;;;;;;;;;6360470;27;20288;-67
2023/12/31 03:57:12;;;;;;;1.03;1.03;;;;;;;;;;6364719;27;20471;-68
2023/12/31 04:00:19;;;;;;;1.27;1.10;;;;;;;;;;6367311;27;20319;-68
2023/12/31 04:03:23;;;;;;;1.10;1.00;;;;;;;;;;6364671;27;20297;-67
2023/12/31 04:06:27;;;;;;;1.00;1.00;;;;;;;;;;6383675;27;20307;-68
2023/12/31 04:09:31;;;;;;;1.47;1.00;;;;;;;;;;6367254;27;20295;-68
2023/12/31 04:12:35;;;;;;;1.10;1.10;;;;;;;;;;6386295;27;20308;-69
2023/12/31 04:15:41;;;;;;;1.00;1.00;;;;;;;;;;6384691;27;20313;-68
2023/12/31 04:18:45;;;;;;;1.00;1.00;;;;;;;;;;6381466;27;20308;-68
2023/12/31 04:21:50;;;;;;;0.90;0.90;;;;;;;;;;6385738;27;20294;-68
2023/12/31 04:24:54;;;;;;;1.00;1.00;;;;;;;;;;6385499;27;20339;-68
2023/12/31 04:27:59;;;;;;;0.90;0.90;;;;;;;;;;6385075;27;20456;-68
2023/12/31 04:31:05;;;;;;;2.20;1.10;;;;;;;;;;6367217;27;20591;-68
2023/12/31 04:34:09;;;;;;;1.13;1.13;;;;;;;;;;6385287;27;20559;-68
2023/12/31 04:37:13;;;;;;;1.00;1.00;;;;;;;;;;6379799;27;20288;-68
2023/12/31 04:40:17;;;;;;;1.10;1.10;;;;;;;;;;6385291;27;20286;-68
2023/12/31 04:43:21;;;;;;;1.20;1.20;;;;;;;;;;6384768;27;20303;-68
2023/12/31 04:46:26;;;;;;;0.90;0.90;;;;;;;;;;6366897;27;20289;-68
2023/12/31 04:49:30;;;;;;;0.90;0.90;;;;;;;;;;6384604;27;20486;-68
2023/12/31 04:52:34;;;;;;;0.90;0.90;;;;;;;;;;6366808;27;20288;-67
2023/12/31 04:55:39;;;;;;;1.00;1.00;;;;;;;;;;6384953;28;20295;-68
2023/12/31 04:58:43;;;;;;;1.00;1.00;;;;;;;;;;6366112;28;20287;-68
2023/12/31 05:01:51;;;;;;;0.83;0.80;;;;;;;;;;6383924;28;20295;-69
2023/12/31 05:04:55;;;;;;;1.00;1.00;;;;;;;;;;6385343;28;20283;-68
2023/12/31 05:07:59;;;;;;;0.97;0.97;;;;;;;;;;6384809;28;20295;-67
2023/12/31 05:11:03;;;;;;;0.93;0.93;;;;;;;;;;6384334;28;20291;-68
2023/12/31 05:14:07;;;;;;;1.00;1.00;;;;;;;;;;6384896;28;20296;-68
2023/12/31 05:17:13;;;;;;;1.00;1.00;;;;;;;;;;6385189;28;20238;-68
2023/12/31 05:20:17;;;;;;;1.00;1.00;;;;;;;;;;6384808;28;20311;-67
2023/12/31 05:23:21;;;;;;;1.17;1.07;;;;;;;;;;6384486;28;20300;-68
2023/12/31 05:26:25;;;;;;;1.00;1.00;;;;;;;;;;6385003;27;20291;-68
2023/12/31 05:29:29;;;;;;;1.07;1.07;;;;;;;;;;6389101;27;20290;-68
2023/12/31 05:32:34;;;;;;;1.20;1.20;;;;;;;;;;6390257;27;20282;-68
2023/12/31 05:35:38;;;;;;;1.30;1.30;;;;;;;;;;6389427;27;20286;-70
2023/12/31 05:38:42;;;;;;;1.10;1.10;;;;;;;;;;6389487;27;20290;-68
2023/12/31 05:41:46;;;;;;;1.00;1.00;;;;;;;;;;6389775;27;20294;-68
2023/12/31 05:44:50;;;;;;;1.27;1.27;;;;;;;;;;6389285;27;20416;-68
2023/12/31 05:47:55;;;;;;;1.10;1.10;;;;;;;;;;6389219;27;20291;-68
2023/12/31 05:50:59;;;;;;;1.30;1.30;;;;;;;;;;6389773;27;20282;-68
2023/12/31 05:54:04;;;;;;;1.20;1.20;;;;;;;;;;6388959;27;20287;-68
2023/12/31 05:57:08;;;;;;;2.00;1.40;;;;;;;;;;6389232;27;20303;-69
2023/12/31 06:00:13;;;;;;;1.20;1.20;;;;;;;;;;6389191;27;20295;-68
2023/12/31 06:03:18;;;;;;;1.80;1.20;;;;;;;;;;6388852;27;20286;-68
2023/12/31 06:06:22;;;;;;;1.43;1.33;;;;;;;;;;6389447;27;20594;-69
2023/12/31 06:09:27;;;;;;;1.40;1.40;;;;;;;;;;6388010;27;20294;-68
2023/12/31 06:12:32;;;;;;;1.20;1.20;;;;;;;;;;6389013;27;20293;-68
2023/12/31 06:15:36;;;;;;;1.20;1.20;;;;;;;;;;6388627;27;20466;-67
2023/12/31 06:18:41;;;;;;;1.30;1.30;;;;;;;;;;6388024;27;20288;-68
2023/12/31 06:21:45;;;;;;;1.20;1.20;;;;;;;;;;6388376;27;20504;-68
2023/12/31 06:24:49;;;;;;;1.07;1.07;;;;;;;;;;6387869;27;20292;-68
2023/12/31 06:27:54;;;;;;;1.17;1.17;;;;;;;;;;6388017;27;20332;-69
2023/12/31 06:30:58;;;;;;;1.10;1.10;;;;;;;;;;6388539;27;20556;-68
2023/12/31 06:34:04;;;;;;;1.20;1.20;;;;;;;;;;6387904;27;20604;-68
2023/12/31 06:37:08;;;;;;;1.30;1.30;;;;;;;;;;6388271;27;20290;-68
2023/12/31 06:40:12;;;;;;;1.43;1.40;;;;;;;;;;6386575;27;20469;-68
2023/12/31 06:43:16;;;;;;;1.20;1.20;;;;;;;;;;6387386;27;20286;-68
2023/12/31 06:46:20;;;;;;;1.47;1.37;;;;;;;;;;6387974;27;20308;-68
2023/12/31 06:49:26;;;;;;;1.43;1.33;;;;;;;;;;6386999;27;20565;-68
2023/12/31 06:52:30;;;;;;;1.20;1.20;;;;;;;;;;6388201;27;20289;-69
2023/12/31 06:55:33;;;;;;;1.30;1.20;;;;;;;;;;6387541;27;20288;-68
2023/12/31 06:58:38;;;;;;;2.30;1.27;;;;;;;;;;6386938;27;20337;-68
2023/12/31 07:01:42;;;;;;;1.40;1.30;;;;;;;;;;6387744;27;20306;-68
2023/12/31 07:04:47;;;;;;;1.53;1.43;;;;;;;;;;6386299;27;20295;-69
2023/12/31 07:07:51;;;;;;;1.57;1.57;;;;;;;;;;6387019;27;20287;-68
2023/12/31 07:10:56;;;;;;;1.33;1.33;;;;;;;;;;6387378;27;20297;-68
2023/12/31 07:14:00;;;;;;;1.63;1.60;;;;;;;;;;6386873;27;20287;-68
2023/12/31 07:17:04;;;;;;;1.50;1.50;;;;;;;;;;6386325;27;20271;-68
2023/12/31 07:20:11;;;;;;;1.30;1.30;;;;;;;;;;6386535;27;20456;-68
2023/12/31 07:23:15;;;;;;;1.60;1.50;;;;;;;;;;6386355;27;20291;-69
2023/12/31 07:26:26;;;;;;;1.20;1.20;;;;;;;;;;6386807;27;20244;-68
2023/12/31 07:29:30;;;;;;;1.33;1.33;;;;;;;;;;6385662;27;20315;-68
2023/12/31 07:32:34;;;;;;;1.50;1.50;;;;;;;;;;6368448;27;20485;-68
2023/12/31 07:35:41;;;;;;;1.50;1.40;;;;;;;;;;6386119;27;20303;-68
2023/12/31 07:38:45;;;;;;;1.40;1.40;;;;;;;;;;6386095;27;20286;-68
2023/12/31 07:41:48;;;;;;;1.37;1.37;;;;;;;;;;6386462;27;20291;-68
2023/12/31 07:44:56;;;;;;;1.50;1.50;;;;;;;;;;6384275;27;20288;-67
2023/12/31 07:48:01;;;;;;;1.50;1.40;;;;;;;;;;6385945;27;20291;-67
2023/12/31 07:51:09;;;;;;;1.53;1.43;;;;;;;;;;6378341;27;20324;-67
2023/12/31 07:54:12;;;;;;;1.70;1.70;;;;;;;;;;6360422;28;20286;-67
2023/12/31 07:57:16;;;;;;;1.70;1.70;;;;;;;;;;6368740;27;20288;-70
2023/12/31 08:00:21;;;;;;;1.70;1.60;;;;;;;;;;6385673;27;20449;-68
2023/12/31 08:03:26;;;;;;;1.40;1.40;;;;;;;;;;6385118;27;20286;-68
2023/12/31 08:06:32;;;;;;;1.30;1.30;;;;;;;;;;6385858;27;20611;-68
2023/12/31 08:09:36;;;;;;;2.73;1.20;;;;;;;;;;6385207;27;20293;-67
2023/12/31 08:12:40;;;;;;;2.00;1.90;;;;;;;;;;6385908;27;20288;-67
2023/12/31 08:15:44;;;;;;;1.40;1.30;;;;;;;;;;6366514;27;20588;-68
2023/12/31 08:18:48;;;;;;;1.63;1.63;;;;;;;;;;6385230;27;20291;-68
2023/12/31 08:21:53;;;;;;;1.67;1.67;;;;;;;;;;6338971;28;20345;-68
2023/12/31 08:24:57;;;;;;;1.73;1.63;;;;;;;;;;6359830;28;20344;-67
2023/12/31 08:28:01;;;;;;;4.43;1.50;;;;;;;;;;6359207;28;20305;-67
2023/12/31 08:31:05;;;;;;;2.00;1.90;;;;;;;;;;6360275;28;20311;-67
2023/12/31 08:34:11;;;;;;;1.73;1.70;;;;;;;;;;6359372;28;20301;-66
2023/12/31 08:37:16;;;;;;;1.87;1.77;;;;;;;;;;6359867;28;20298;-66
2023/12/31 08:40:20;;;;;;;2.07;1.87;;;;;;;;;;6359337;28;20309;-67
2023/12/31 08:43:24;;;;;;;1.90;1.60;;;;;;;;;;6359375;28;20293;-66
2023/12/31 08:46:28;;;;;;;2.00;1.90;;;;;;;;;;6359645;28;20289;-67
2023/12/31 08:49:32;;;;;;;1.83;1.83;;;;;;;;;;6359292;28;20293;-68
2023/12/31 08:52:40;;;;;;;1.70;1.70;;;;;;;;;;6359735;28;20304;-66
2023/12/31 08:55:44;;;;;;;1.60;1.60;;;;;;;;;;6357659;28;20443;-68
2023/12/31 08:58:48;;;;;;;2.20;2.20;;;;;;;;;;6359069;28;20300;-68
2023/12/31 09:01:52;;;;;;;1.90;1.90;;;;;;;;;;6359917;28;20295;-66
2023/12/31 09:04:56;;;;;;;2.07;1.97;;;;;;;;;;6364289;28;20289;-68
2023/12/31 09:08:02;;;;;;;2.47;2.30;;;;;;;;;;6364353;27;20569;-66
2023/12/31 09:11:06;;;;;;;2.03;1.97;;;;;;;;;;6363337;28;20319;-66
2023/12/31 09:14:10;;;;;;;2.20;2.10;;;;;;;;;;6364108;28;20293;-65
2023/12/31 09:17:14;;;;;;;3.60;1.97;;;;;;;;;;6363049;28;20539;-65
2023/12/31 09:20:18;;;;;;;1.90;1.80;;;;;;;;;;6371959;27;20296;-66
2023/12/31 09:23:23;;;;;;;2.00;1.90;;;;;;;;;;6389482;27;20296;-66
2023/12/31 09:26:27;;;;;;;2.13;2.13;;;;;;;;;;6389370;27;20295;-66
2023/12/31 09:29:31;;;;;;;2.10;2.07;;;;;;;;;;6389090;27;20284;-66
2023/12/31 09:32:35;;;;;;;4.73;2.20;;;;;;;;;;6389482;27;20449;-67
2023/12/31 09:35:39;;;;;;;2.00;1.97;;;;;;;;;;6389105;27;20289;-67
2023/12/31 09:38:45;;;;;;;2.20;2.10;;;;;;;;;;6388594;27;20284;-67
2023/12/31 09:41:50;;;;;;;2.10;2.00;;;;;;;;;;6389053;27;20556;-67
2023/12/31 09:44:55;;;;;;;2.23;2.03;;;;;;;;;;6388663;27;20283;-68
2023/12/31 09:48:00;;;;;;;2.00;2.00;;;;;;;;;;6388678;27;20285;-68
2023/12/31 09:51:05;;;;;;;1.90;1.90;;;;;;;;;;6389458;27;20292;-69
2023/12/31 09:54:11;;;;;;;2.10;2.10;;;;;;;;;;6388732;27;20290;-68
2023/12/31 09:57:18;;;;;;;1.73;1.73;;;;;;;;;;6388745;27;20440;-69
2023/12/31 10:00:22;;;;;;;2.00;1.80;;;;;;;;;;6388802;27;20296;-68
2023/12/31 10:03:27;;;;;;;1.83;1.83;;;;;;;;;;6369889;27;20292;-69
2023/12/31 10:06:32;;;;;;;2.10;2.10;;;;;;;;;;6389197;27;20286;-69
2023/12/31 10:09:39;;;;;;;2.00;2.00;;;;;;;;;;6388408;27;20308;-68
2023/12/31 10:12:42;;;;;;;2.30;2.20;;;;;;;;;;6388450;27;20297;-68
2023/12/31 10:15:46;;;;;;;1.87;1.87;;;;;;;;;;6387236;27;20290;-68
2023/12/31 10:18:50;;;;;;;1.80;1.80;;;;;;;;;;6386962;27;20291;-68
2023/12/31 10:21:54;;;;;;;1.80;1.80;;;;;;;;;;6384532;27;20294;-68
2023/12/31 10:25:12;;;;;;;1.97;1.97;;;;;;;;;;6386189;27;20574;-69
2023/12/31 10:28:18;;;;;;;2.57;2.47;;;;;;;;;;6387870;27;20284;-68
2023/12/31 10:31:24;;;;;;;2.07;1.97;;;;;;;;;;6387790;27;20378;-70
2023/12/31 10:34:28;;;;;;;2.10;1.97;;;;;;;;;;6387725;27;20331;-69
2023/12/31 10:37:34;;;;;;;2.10;2.00;;;;;;;;;;6388158;27;20291;-69
2023/12/31 10:40:41;;;;;;;2.10;2.00;;;;;;;;;;6387575;27;20297;-69
2023/12/31 10:43:46;;;;;;;2.10;2.10;;;;;;;;;;6387394;27;20290;-69
2023/12/31 10:46:52;;;;;;;2.10;2.03;;;;;;;;;;6388266;27;20296;-69
2023/12/31 10:49:57;;;;;;;2.30;2.30;;;;;;;;;;6368789;27;20535;-68
2023/12/31 10:53:02;;;;;;;2.73;2.13;;;;;;;;;;6387353;27;20502;-68
2023/12/31 10:56:08;;;;;;;2.30;2.20;;;;;;;;;;6387191;27;20279;-69
2023/12/31 10:59:12;;;;;;;2.03;2.03;;;;;;;;;;6387249;27;20294;-69
2023/12/31 11:02:17;;;;;;;2.47;2.13;;;;;;;;;;6387744;27;20244;-70
2023/12/31 11:05:23;;;;;;;2.27;2.27;;;;;;;;;;6386890;27;20302;-70
2023/12/31 11:08:28;;;;;;;2.40;2.30;;;;;;;;;;6387176;27;20292;-69
2023/12/31 11:11:34;;;;;;;2.33;2.30;;;;;;;;;;6387629;27;20583;-69
2023/12/31 11:14:40;;;;;;;2.40;2.40;;;;;;;;;;6385179;27;20296;-69
2023/12/31 11:17:59;;;;;;;2.00;2.00;;;;;;;;;;6386680;27;20291;-71
2023/12/31 11:21:11;;;;;;;2.30;2.13;;;;;;;;;;6387036;27;20296;-69
2023/12/31 11:24:18;;;;;;;2.37;2.27;;;;;;;;;;6386755;27;20294;-69
2023/12/31 11:27:24;;;;;;;2.60;2.50;;;;;;;;;;6386490;27;20368;-70
2023/12/31 11:30:47;;;;;;;2.50;2.50;;;;;;;;;;6386606;27;20289;-70
2023/12/31 11:33:51;;;;;;;2.77;2.67;;;;;;;;;;6368015;27;20474;-70
2023/12/31 11:36:55;;;;;;;2.77;2.67;;;;;;;;;;6387106;27;20316;-70
2023/12/31 11:39:59;;;;;;;2.30;2.20;;;;;;;;;;6387276;27;20293;-70
2023/12/31 11:43:12;;;;;;;2.47;2.27;;;;;;;;;;6386513;27;20291;-74
2023/12/31 11:46:33;;;;;;;1.97;1.97;;;;;;;;;;6387079;27;20302;-72
2023/12/31 11:49:40;;;;;;;1.90;1.80;;;;;;;;;;6386462;27;20566;-72
2023/12/31 11:52:44;;;;;;;2.37;2.17;;;;;;;;;;6386501;27;20296;-70
2023/12/31 11:55:51;;;;;;;2.40;2.30;;;;;;;;;;6385849;27;20288;-70
2023/12/31 11:58:56;;;;;;;2.57;2.43;;;;;;;;;;6385568;27;20291;-70
2023/12/31 12:02:01;;;;;;;2.67;2.33;;;;;;;;;;6386662;27;20296;-69
2023/12/31 12:05:06;;;;;;;2.53;2.40;;;;;;;;;;6385131;27;20283;-69
2023/12/31 12:08:12;;;;;;;2.60;2.50;;;;;;;;;;6386064;27;20305;-70
2023/12/31 12:11:16;;;;;;;2.37;2.27;;;;;;;;;;6385247;27;20247;-70
2023/12/31 12:14:22;;;;;;;2.30;2.30;;;;;;;;;;6384946;27;20290;-69
2023/12/31 12:17:29;;;;;;;2.70;2.60;;;;;;;;;;6384230;27;20290;-70
2023/12/31 12:20:33;;;;;;;3.03;2.93;;;;;;;;;;6365279;27;20294;-71
2023/12/31 12:23:40;;;;;;;2.60;2.50;;;;;;;;;;6385731;27;20296;-69
2023/12/31 12:26:45;;;;;;;2.50;2.40;;;;;;;;;;6385588;27;20296;-68
2023/12/31 12:29:50;;;;;;;2.47;2.37;;;;;;;;;;6385090;27;20288;-69
2023/12/31 12:32:54;;;;;;;3.00;2.80;;;;;;;;;;6384943;27;20544;-68
2023/12/31 12:35:58;;;;;;;2.53;2.43;;;;;;;;;;6385832;27;20287;-69
2023/12/31 12:39:03;;;;;;;2.30;2.30;;;;;;;;;;6384515;27;20290;-69
2023/12/31 12:42:08;;;;;;;2.60;2.60;;;;;;;;;;6385760;27;20298;-69
2023/12/31 12:45:14;;;;;;;2.50;2.50;;;;;;;;;;6384876;27;20300;-71
2023/12/31 12:48:18;;;;;;;2.70;2.50;;;;;;;;;;6385192;27;20297;-70
2023/12/31 12:51:22;;;;;;;2.77;2.67;;;;;;;;;;6385398;27;20280;-70
2023/12/31 12:54:27;;;;;;;2.20;2.17;;;;;;;;;;6365522;27;20295;-70
2023/12/31 12:57:31;;;;;;;2.23;2.23;;;;;;;;;;6384946;27;20292;-69
2023/12/31 13:00:36;;;;;;;2.53;2.43;;;;;;;;;;6384319;28;20284;-69
2023/12/31 13:03:40;;;;;;;2.47;2.37;;;;;;;;;;6385830;28;20288;-68
2023/12/31 13:06:44;;;;;;;2.80;2.70;;;;;;;;;;6385340;28;20295;-68
2023/12/31 13:09:48;;;;;;;2.70;2.57;;;;;;;;;;6384215;28;20296;-68
2023/12/31 13:12:52;;;;;;;3.00;2.90;;;;;;;;;;6384302;28;20308;-68
2023/12/31 13:15:58;;;;;;;2.90;2.80;;;;;;;;;;6385187;28;20324;-68
2023/12/31 13:19:09;;;;;;;2.60;2.50;;;;;;;;;;6380578;28;20299;-68
2023/12/31 13:22:13;;;;;;;2.90;2.70;;;;;;;;;;6383176;28;20298;-68
2023/12/31 13:25:17;;;;;;;3.47;3.03;;;;;;;;;;6384476;28;20280;-69
2023/12/31 13:28:21;;;;;;;2.50;2.43;;;;;;;;;;6365780;27;20567;-69
2023/12/31 13:31:28;;;;;;;3.37;2.70;;;;;;;;;;6384936;28;20280;-69
2023/12/31 13:34:32;;;;;;;2.67;2.63;;;;;;;;;;6384422;27;20302;-69
2023/12/31 13:37:36;;;;;;;3.77;2.63;;;;;;;;;;6385097;28;20292;-69
2023/12/31 13:40:40;;;;;;;2.80;2.70;;;;;;;;;;6384292;27;20298;-69
2023/12/31 13:43:44;;;;;;;3.10;2.80;;;;;;;;;;6375726;27;20276;-69
2023/12/31 13:46:50;;;;;;;2.70;2.60;;;;;;;;;;6384477;28;20451;-68
2023/12/31 13:49:53;;;;;;;2.77;2.67;;;;;;;;;;6387171;27;20292;-68
2023/12/31 13:52:58;;;;;;;3.83;2.90;;;;;;;;;;6388549;27;20287;-70
2023/12/31 13:56:02;;;;;;;2.70;2.60;;;;;;;;;;6388755;27;20284;-71
2023/12/31 13:59:07;;;;;;;2.57;2.47;;;;;;;;;;6388129;27;20299;-68
2023/12/31 14:02:13;;;;;;;2.93;2.83;;;;;;;;;;6389080;27;20417;-68
2023/12/31 14:05:17;;;;;;;2.67;2.57;;;;;;;;;;6388471;27;20458;-68
2023/12/31 14:08:20;;;;;;;2.60;2.50;;;;;;;;;;6388625;27;20292;-68
2023/12/31 14:11:25;;;;;;;2.70;2.60;;;;;;;;;;6388768;27;20287;-69
2023/12/31 14:14:28;;;;;;;2.77;2.57;;;;;;;;;;6388236;27;20535;-69
2023/12/31 14:17:34;;;;;;;2.80;2.70;;;;;;;;;;6389073;27;20284;-68
2023/12/31 14:20:38;;;;;;;2.33;2.30;;;;;;;;;;6388495;27;20288;-69
2023/12/31 14:23:42;;;;;;;2.57;2.57;;;;;;;;;;6388192;27;20545;-69
2023/12/31 14:26:46;;;;;;;12.70;5.33;;;;;;;;;;6388637;27;20303;-69
2023/12/31 14:29:52;;;;;;;3.00;2.90;;;;;;;;;;6369165;27;20449;-68
2023/12/31 14:32:57;;;;;;;9.00;4.37;;;;;;;;;;6387830;27;20300;-69
2023/12/31 14:36:01;;;;;;;2.50;2.40;;;;;;;;;;6388308;27;20467;-68
2023/12/31 14:39:05;;;;;;;2.50;2.40;;;;;;;;;;6387640;27;20295;-68
2023/12/31 14:42:09;;;;;;;2.60;2.50;;;;;;;;;;6388260;27;20292;-68
2023/12/31 14:45:13;;;;;;;2.70;2.60;;;;;;;;;;6387636;27;20299;-68
2023/12/31 14:48:18;;;;;;;2.60;2.50;;;;;;;;;;6387776;27;20300;-68
2023/12/31 14:51:22;;;;;;;2.60;2.40;;;;;;;;;;6388277;27;20292;-68
2023/12/31 14:54:27;;;;;;;2.93;2.90;;;;;;;;;;6387597;27;20292;-68
2023/12/31 14:57:30;;;;;;;2.47;2.37;;;;;;;;;;6369570;27;20564;-68
2023/12/31 15:00:36;;;;;;;2.87;2.70;;;;;;;;;;6386365;27;20288;-70
2023/12/31 15:03:41;;;;;;;2.40;2.40;;;;;;;;;;6368560;27;20288;-73
2023/12/31 15:06:45;;;;;;;2.97;2.67;;;;;;;;;;6387682;27;20354;-71
2023/12/31 15:09:49;;;;;;;2.67;2.57;;;;;;;;;;6387325;27;20276;-68
2023/12/31 15:12:53;;;;;;;2.77;2.67;;;;;;;;;;6387130;27;20300;-69
2023/12/31 15:15:57;;;;;;;2.53;2.53;;;;;;;;;;6368726;27;20291;-71
2023/12/31 15:19:03;;;;;;;2.47;2.40;;;;;;;;;;6386916;27;20285;-69
2023/12/31 15:22:07;;;;;;;2.90;2.80;;;;;;;;;;6387948;27;20314;-69
2023/12/31 15:25:11;;;;;;;2.87;2.77;;;;;;;;;;6386970;27;20299;-69
2023/12/31 15:28:15;;;;;;;2.77;2.67;;;;;;;;;;6387121;27;20280;-69
2023/12/31 15:31:21;;;;;;;2.97;2.77;;;;;;;;;;6388043;27;20284;-68
2023/12/31 15:34:27;;;;;;;3.00;2.90;;;;;;;;;;6386807;27;20293;-67
2023/12/31 15:37:32;;;;;;;3.00;2.80;;;;;;;;;;6387146;27;20294;-68
2023/12/31 15:40:39;;;;;;;2.90;2.80;;;;;;;;;;6386807;27;20281;-67
2023/12/31 15:43:43;;;;;;;2.90;2.77;;;;;;;;;;6368230;27;20297;-68
2023/12/31 15:46:47;;;;;;;3.00;2.90;;;;;;;;;;6387223;27;20308;-69
2023/12/31 15:49:53;;;;;;;3.30;3.10;;;;;;;;;;6384685;27;20299;-69
2023/12/31 15:52:57;;;;;;;3.20;3.00;;;;;;;;;;6386397;27;20324;-69
2023/12/31 15:56:01;;;;;;;3.00;2.90;;;;;;;;;;6386426;27;20300;-69
2023/12/31 15:59:06;;;;;;;3.27;3.10;;;;;;;;;;6384961;27;20313;-68
2023/12/31 16:02:13;;;;;;;2.60;2.60;;;;;;;;;;6386582;27;20237;-69
2023/12/31 16:05:19;;;;;;;2.80;2.70;;;;;;;;;;6385891;27;20289;-68
2023/12/31 16:08:24;;;;;;;3.67;3.57;;;;;;;;;;6385700;27;20327;-68
2023/12/31 16:11:27;;;;;;;3.23;3.03;;;;;;;;;;6386024;27;20284;-68
2023/12/31 16:14:32;;;;;;;3.13;3.00;;;;;;;;;;6385435;27;20538;-69
2023/12/31 16:17:36;;;;;;;3.50;3.30;;;;;;;;;;6386277;27;20289;-69
2023/12/31 16:20:41;;;;;;;3.90;3.70;;;;;;;;;;6385032;27;20292;-70
2023/12/31 16:23:45;;;;;;;3.53;3.30;;;;;;;;;;6385375;27;20296;-69
2023/12/31 16:26:49;;;;;;;3.10;2.97;;;;;;;;;;6385709;27;20295;-68
2023/12/31 16:29:52;;;;;;;3.07;2.97;;;;;;;;;;6384940;27;20288;-68
2023/12/31 16:32:56;;;;;;;3.40;3.13;;;;;;;;;;6384920;27;20285;-68
2023/12/31 16:36:02;;;;;;;3.10;3.00;;;;;;;;;;6385741;27;20291;-68
2023/12/31 16:39:06;;;;;;;3.07;2.87;;;;;;;;;;6385106;27;20287;-68
2023/12/31 16:42:10;;;;;;;2.17;2.17;;;;;;;;;;6366879;27;20494;-69
2023/12/31 16:45:14;;;;;;;2.70;2.60;;;;;;;;;;6384953;27;20377;-69
2023/12/31 16:48:18;;;;;;;2.93;2.83;;;;;;;;;;6385167;27;20286;-69
2023/12/31 16:51:25;;;;;;;2.63;2.40;;;;;;;;;;6385432;27;20293;-70
2023/12/31 16:54:29;;;;;;;4.43;4.10;;;;;;;;;;6385013;27;20292;-70
2023/12/31 16:57:33;;;;;;;2.50;2.40;;;;;;;;;;6385206;27;20292;-70
2023/12/31 17:00:37;;;;;;;3.10;2.87;;;;;;;;;;6366270;28;20290;-69
2023/12/31 17:03:41;;;;;;;2.60;2.60;;;;;;;;;;6385065;28;20292;-69
2023/12/31 17:06:46;;;;;;;2.70;2.60;;;;;;;;;;6385351;28;20308;-69
2023/12/31 17:09:50;;;;;;;2.70;2.60;;;;;;;;;;6384705;28;20290;-69
2023/12/31 17:12:54;;;;;;;2.83;2.73;;;;;;;;;;6384620;28;20304;-67
2023/12/31 17:16:02;;;;;;;2.43;2.27;;;;;;;;;;6384999;28;20296;-67
2023/12/31 17:19:08;;;;;;;2.93;2.73;;;;;;;;;;6384663;28;20292;-68
2023/12/31 17:22:13;;;;;;;2.60;2.60;;;;;;;;;;6384499;27;20428;-67
2023/12/31 17:25:17;;;;;;;2.57;2.50;;;;;;;;;;6388955;27;20300;-67
2023/12/31 17:28:23;;;;;;;2.53;2.53;;;;;;;;;;6389133;27;20290;-67
2023/12/31 17:31:28;;;;;;;2.30;2.30;;;;;;;;;;6390240;27;20289;-67
2023/12/31 17:34:31;;;;;;;3.50;3.23;;;;;;;;;;6389610;27;20295;-68
2023/12/31 17:37:37;;;;;;;4.50;2.87;;;;;;;;;;6390094;27;20294;-71
2023/12/31 17:40:41;;;;;;;3.27;3.07;;;;;;;;;;6389294;27;20290;-69
2023/12/31 17:43:45;;;;;;;2.73;2.53;;;;;;;;;;6389119;27;20285;-68
2023/12/31 17:46:49;;;;;;;2.87;2.77;;;;;;;;;;6389331;27;20288;-73
2023/12/31 17:49:53;;;;;;;2.40;2.40;;;;;;;;;;6389275;27;20290;-69
2023/12/31 17:52:59;;;;;;;2.80;2.70;;;;;;;;;;6388708;27;20289;-68
2023/12/31 17:56:03;;;;;;;3.20;3.10;;;;;;;;;;6388342;27;20447;-70
2023/12/31 17:59:06;;;;;;;2.77;2.67;;;;;;;;;;6388565;27;20324;-69
2023/12/31 18:02:10;;;;;;;3.20;3.00;;;;;;;;;;6389467;27;20290;-70
2023/12/31 18:05:15;;;;;;;3.10;2.80;;;;;;;;;;6388865;27;20300;-68
2023/12/31 18:08:20;;;;;;;2.90;2.70;;;;;;;;;;6370098;27;20283;-72
2023/12/31 18:11:25;;;;;;;3.10;3.10;;;;;;;;;;6389369;27;20558;-69
2023/12/31 18:14:29;;;;;;;2.13;2.13;;;;;;;;;;6388272;27;20288;-73
2023/12/31 18:17:33;;;;;;;1.70;1.70;;;;;;;;;;6388844;27;20295;-73
2023/12/31 18:20:37;;;;;;;2.13;2.13;;;;;;;;;;6388174;27;20285;-75
2023/12/31 18:23:42;;;;;;;2.47;2.47;;;;;;;;;;6388247;27;20360;-71
2023/12/31 18:26:46;;;;;;;2.27;2.13;;;;;;;;;;6380817;27;20318;-71